createdAt,value
2024-01-14T00:04:12.349Z,5.00
2024-01-14T00:14:16.667Z,4.69
2024-01-14T00:24:19.485Z,4.65
2024-01-14T00:34:23.568Z,4.73
2024-01-14T00:44:27.725Z,4.97
2024-01-14T00:54:32.394Z,4.68
2024-01-14T01:04:35.654Z,4.82
2024-01-14T01:14:39.854Z,4.69
2024-01-14T01:24:42.711Z,4.73
2024-01-14T01:34:46.988Z,4.64
2024-01-14T01:44:49.921Z,4.51
2024-01-14T01:54:55.984Z,4.37
2024-01-14T02:04:58.911Z,4.17
2024-01-14T02:15:03.514Z,4.17
2024-01-14T02:25:08.222Z,4.13
2024-01-14T02:35:10.965Z,4.27
2024-01-14T02:45:15.586Z,4.15
2024-01-14T02:55:19.563Z,3.92
2024-01-14T03:05:23.854Z,3.77
2024-01-14T03:15:26.752Z,3.78
2024-01-14T03:25:30.910Z,3.90
2024-01-14T03:35:33.987Z,3.85
2024-01-14T03:45:38.147Z,3.82
2024-01-14T03:55:41.025Z,3.56
2024-01-14T04:05:45.295Z,3.49
2024-01-14T04:15:48.366Z,3.67
2024-01-14T04:25:52.532Z,3.70
2024-01-14T04:35:55.472Z,3.61
2024-01-14T04:46:00.565Z,3.57
2024-01-14T04:56:07.982Z,3.59
2024-01-14T05:06:12.987Z,3.57
2024-01-14T05:16:15.899Z,3.48
2024-01-14T05:26:20.277Z,3.35
2024-01-14T05:36:23.279Z,3.41
2024-01-14T05:46:27.490Z,3.59
2024-01-14T05:56:31.103Z,3.82
2024-01-14T06:06:35.352Z,3.64
2024-01-14T06:16:39.453Z,3.46
2024-01-14T06:26:43.716Z,3.33
2024-01-14T06:36:46.531Z,3.18
2024-01-14T06:46:52.924Z,3.09
2024-01-14T06:56:56.085Z,2.90
2024-01-14T07:07:00.315Z,2.76
2024-01-14T07:17:03.290Z,2.84
2024-01-14T07:27:07.664Z,2.89
2024-01-14T07:37:10.425Z,2.75
2024-01-14T07:47:14.572Z,2.74
2024-01-14T07:57:17.382Z,2.82
2024-01-14T08:07:21.777Z,2.99
2024-01-14T08:17:24.703Z,3.13
2024-01-14T08:27:30.173Z,3.29
2024-01-14T08:37:32.948Z,3.31
2024-01-14T08:47:37.089Z,3.55
2024-01-14T08:57:40.685Z,3.70
2024-01-14T09:07:44.897Z,3.69
2024-01-14T09:17:47.937Z,3.88
2024-01-14T09:27:52.272Z,4.24
2024-01-14T09:37:55.857Z,4.06
2024-01-14T09:48:00.951Z,4.27
2024-01-14T09:58:06.152Z,4.32
2024-01-14T10:08:10.458Z,4.37
2024-01-14T10:18:13.389Z,4.58
2024-01-14T10:28:18.956Z,5.07
2024-01-14T10:38:23.466Z,4.92
2024-01-14T10:48:29.124Z,4.97
2024-01-14T10:58:36.990Z,5.38
2024-01-14T11:08:41.656Z,5.43
2024-01-14T11:18:49.504Z,5.47
2024-01-14T11:28:55.632Z,6.33
2024-01-14T11:38:58.574Z,5.87
2024-01-14T11:49:10.176Z,5.82
2024-01-14T11:59:34.134Z,6.05
2024-01-14T12:09:53.883Z,6.05
2024-01-14T12:20:00.987Z,5.91
2024-01-14T12:30:06.372Z,6.67
2024-01-14T12:40:10.272Z,7.26
2024-01-14T12:50:16.061Z,11.56
2024-01-14T13:00:19.057Z,10.33
2024-01-14T13:10:23.255Z,8.11
2024-01-14T13:20:26.068Z,7.18
2024-01-14T13:30:30.249Z,9.78
2024-01-14T13:40:34.536Z,6.56
2024-01-14T13:50:39.124Z,5.93
2024-01-14T14:00:41.996Z,6.29
2024-01-14T14:10:53.484Z,7.32
2024-01-14T14:20:59.506Z,3.76
2024-01-14T14:31:03.883Z,2.97
2024-01-14T14:41:08.128Z,3.28
2024-01-14T14:51:19.193Z,3.60
2024-01-14T15:01:33.015Z,3.82
2024-01-14T15:11:42.799Z,3.92
2024-01-14T15:21:45.707Z,4.02
2024-01-14T15:31:50.571Z,4.09
2024-01-14T15:41:53.427Z,4.12
2024-01-14T15:51:57.666Z,4.24
2024-01-14T16:02:00.521Z,4.04
2024-01-14T16:12:05.242Z,3.90
2024-01-14T16:22:08.292Z,3.89
2024-01-14T16:32:12.590Z,3.80
2024-01-14T16:42:15.448Z,3.60
2024-01-14T16:52:19.654Z,3.47
2024-01-14T17:02:22.727Z,3.41
2024-01-14T17:12:28.507Z,3.49
2024-01-14T17:22:31.356Z,3.53
2024-01-14T17:32:35.480Z,3.53
2024-01-14T17:42:38.858Z,3.27
2024-01-14T17:52:45.041Z,3.14
2024-01-14T18:02:58.529Z,3.01
2024-01-14T18:13:13.315Z,2.86
2024-01-14T18:23:17.236Z,2.84
2024-01-14T18:33:21.567Z,2.81
2024-01-14T18:43:25.336Z,2.80
2024-01-14T18:53:29.787Z,2.86
2024-01-14T19:03:32.622Z,2.80
2024-01-14T19:13:36.773Z,2.78
2024-01-14T19:23:39.494Z,2.51
2024-01-14T19:33:43.966Z,2.44
2024-01-14T19:43:47.223Z,2.51
2024-01-14T19:53:51.573Z,2.39
2024-01-14T20:03:54.483Z,2.45
2024-01-14T20:14:04.112Z,2.38
2024-01-14T20:24:07.916Z,1.86
2024-01-14T20:34:12.195Z,1.97
2024-01-14T20:44:15.421Z,2.12
2024-01-14T20:54:19.801Z,2.01
2024-01-14T21:04:22.960Z,1.97
2024-01-14T21:14:28.085Z,2.05
2024-01-14T21:24:30.983Z,1.79
2024-01-14T21:34:36.898Z,1.85
2024-01-14T21:44:39.810Z,1.88
2024-01-14T21:54:44.577Z,1.82
2024-01-14T22:04:47.582Z,1.72
2024-01-14T22:14:51.775Z,1.64
2024-01-14T22:24:56.316Z,1.60
2024-01-14T22:35:01.844Z,1.63
2024-01-14T22:45:05.298Z,1.60
2024-01-14T22:55:10.379Z,1.61
2024-01-14T23:05:13.311Z,1.66
2024-01-14T23:15:17.604Z,1.68
2024-01-14T23:25:20.512Z,1.76
2024-01-14T23:35:24.618Z,1.83
2024-01-14T23:45:28.560Z,1.86
2024-01-14T23:55:32.674Z,1.96
